createdAt,value
2017-01-21T00:00:46.010Z,90.92
2017-01-21T00:01:45.959Z,91.49
2017-01-21T00:02:45.913Z,91.2
2017-01-21T00:03:45.868Z,91.11
2017-01-21T00:04:45.821Z,91.2
2017-01-21T00:05:45.776Z,91.2
2017-01-21T00:06:45.727Z,91.67
2017-01-21T00:07:45.681Z,91.58
2017-01-21T00:08:45.637Z,91.77
2017-01-21T00:09:45.590Z,91.58
2017-01-21T00:10:45.542Z,91.39
2017-01-21T00:11:45.498Z,91.77
2017-01-21T00:12:45.451Z,92.14
2017-01-21T00:13:45.403Z,92.33
2017-01-21T00:14:45.356Z,92.05
2017-01-21T00:15:45.311Z,91.96
2017-01-21T00:16:45.267Z,92.14
2017-01-21T00:17:45.217Z,92.14
2017-01-21T00:18:45.172Z,91.86
2017-01-21T00:19:45.125Z,92.05
2017-01-21T00:20:45.080Z,92.33
2017-01-21T00:21:45.034Z,92.24
2017-01-21T00:22:44.988Z,92.33
2017-01-21T00:23:44.951Z,92.24
2017-01-21T00:24:44.895Z,92.14
2017-01-21T00:25:44.854Z,92.33
2017-01-21T00:26:44.803Z,91.86
2017-01-21T00:27:44.756Z,92.24
2017-01-21T00:28:44.709Z,92.33
2017-01-21T00:29:44.663Z,92.43
2017-01-21T00:30:44.618Z,92.43
2017-01-21T00:31:44.569Z,92.24
2017-01-21T00:32:44.523Z,92.33
2017-01-21T00:33:44.476Z,92.33
2017-01-21T00:34:44.431Z,92.24
2017-01-21T00:35:44.384Z,92.43
2017-01-21T00:36:44.339Z,92.33
2017-01-21T00:37:44.291Z,92.43
2017-01-21T00:38:44.246Z,92.52
2017-01-21T00:39:44.197Z,92.52
2017-01-21T00:40:44.156Z,92.52
2017-01-21T00:41:44.105Z,92.43
2017-01-21T00:42:44.057Z,92.52
2017-01-21T00:43:44.013Z,92.62
2017-01-21T00:44:43.967Z,92.52
2017-01-21T00:45:43.921Z,92.8
2017-01-21T00:46:43.876Z,92.33
2017-01-21T00:47:43.827Z,92.05
2017-01-21T00:48:43.780Z,92.71
2017-01-21T00:49:43.734Z,92.71
2017-01-21T00:50:43.691Z,93.18
2017-01-21T00:51:43.641Z,92.9
2017-01-21T00:52:43.594Z,92.9
2017-01-21T00:53:43.547Z,93.28
2017-01-21T00:54:43.502Z,93.18
2017-01-21T00:55:43.454Z,92.8
2017-01-21T00:56:43.410Z,92.9
2017-01-21T00:57:43.361Z,92.99
2017-01-21T00:58:43.316Z,92.9
2017-01-21T00:59:43.270Z,92.8
2017-01-21T01:00:43.225Z,92.71
2017-01-21T01:01:43.176Z,93.18
2017-01-21T01:02:43.130Z,92.99
2017-01-21T01:03:43.088Z,92.9
2017-01-21T01:04:43.037Z,93.18
2017-01-21T01:05:42.991Z,92.8
2017-01-21T01:06:42.945Z,92.62
2017-01-21T01:07:42.900Z,92.19
2017-01-21T01:08:42.859Z,92.33
2017-01-21T01:09:42.808Z,92.14
2017-01-21T01:10:42.761Z,92.38
2017-01-21T01:11:42.715Z,92.38
2017-01-21T01:12:42.668Z,92.38
2017-01-21T01:13:42.621Z,92.38
2017-01-21T01:14:42.575Z,92.38
2017-01-21T01:15:42.529Z,92.29
2017-01-21T01:16:42.484Z,92.38
2017-01-21T01:17:42.439Z,92.38
2017-01-21T01:18:42.390Z,91.82
2017-01-21T01:19:42.343Z,92.19
2017-01-21T01:20:42.298Z,92.19
2017-01-21T01:21:42.251Z,92.19
2017-01-21T01:22:42.208Z,91.82
2017-01-21T01:23:42.161Z,92.38
2017-01-21T01:24:42.113Z,91.82
2017-01-21T01:25:42.067Z,92
2017-01-21T01:26:42.021Z,92.19
2017-01-21T01:27:41.975Z,92.1
2017-01-21T01:28:41.929Z,92
2017-01-21T01:29:41.885Z,91.91
2017-01-21T01:30:41.835Z,92.19
2017-01-21T01:31:41.792Z,92.19
2017-01-21T01:32:41.744Z,91.91
2017-01-21T01:33:41.700Z,91.63
2017-01-21T01:34:41.653Z,92.33
2017-01-21T01:35:41.606Z,92.38
2017-01-21T01:36:41.561Z,92.19
2017-01-21T01:37:41.513Z,92.66
2017-01-21T01:38:41.468Z,92.43
2017-01-21T01:39:41.427Z,92.57
2017-01-21T01:40:41.384Z,92.24
2017-01-21T01:41:41.330Z,92.52
2017-01-21T01:42:41.284Z,92.38
2017-01-21T01:43:41.237Z,92.9
2017-01-21T01:44:41.191Z,93.09
2017-01-21T01:45:41.146Z,92.8
2017-01-21T01:46:41.098Z,92.8
2017-01-21T01:47:41.054Z,93.09
2017-01-21T01:48:41.009Z,92.66
2017-01-21T01:49:40.963Z,93.28
2017-01-21T01:50:40.916Z,92.99
2017-01-21T01:51:40.877Z,93.09
2017-01-21T01:52:40.823Z,93.09
2017-01-21T01:53:40.776Z,93.09
2017-01-21T01:54:40.730Z,93.04
2017-01-21T01:55:40.683Z,92.9
2017-01-21T01:56:40.645Z,93.37
2017-01-21T01:57:40.592Z,93.28
2017-01-21T01:58:40.547Z,93.18
2017-01-21T01:59:40.500Z,93.56
2017-01-21T02:00:40.455Z,93.75
2017-01-21T02:01:40.407Z,93.47
2017-01-21T02:02:40.362Z,93.37
2017-01-21T02:03:40.320Z,93.47
2017-01-21T02:04:40.270Z,93.75
2017-01-21T02:05:40.224Z,93.75
2017-01-21T02:06:40.179Z,93.75
2017-01-21T02:07:40.130Z,93.84
2017-01-21T02:08:40.084Z,93.94
2017-01-21T02:09:40.039Z,93.75
2017-01-21T02:10:39.992Z,94.03
2017-01-21T02:11:39.946Z,93.94
2017-01-21T02:12:39.907Z,93.75
2017-01-21T02:13:39.854Z,93.94
2017-01-21T02:14:39.807Z,94.13
2017-01-21T02:15:39.761Z,94.13
2017-01-21T02:16:39.717Z,93.94
2017-01-21T02:17:39.668Z,94.13
2017-01-21T02:18:39.622Z,94.13
2017-01-21T02:19:39.577Z,94.13
2017-01-21T02:20:39.533Z,94.31
2017-01-21T02:21:39.484Z,94.13
2017-01-21T02:22:39.438Z,94.03
2017-01-21T02:23:39.395Z,94.31
2017-01-21T02:24:39.346Z,93.94
2017-01-21T02:25:39.301Z,94.13
2017-01-21T02:26:39.254Z,94.03
2017-01-21T02:27:39.207Z,94.03
2017-01-21T02:28:39.162Z,93.94
2017-01-21T02:29:39.114Z,94.5
2017-01-21T02:30:39.074Z,94.55
2017-01-21T02:31:39.024Z,94.13
2017-01-21T02:32:38.976Z,94.5
2017-01-21T02:33:38.929Z,94.31
2017-01-21T02:34:38.883Z,94.13
2017-01-21T02:35:38.838Z,93.56
2017-01-21T02:36:38.791Z,93.94
2017-01-21T02:37:38.745Z,93.84
2017-01-21T02:38:38.699Z,93.37
2017-01-21T02:39:38.652Z,94.13
2017-01-21T02:40:38.605Z,93.47
2017-01-21T02:41:38.561Z,93.65
2017-01-21T02:42:38.514Z,93.75
2017-01-21T02:43:38.467Z,93.47
2017-01-21T02:44:38.423Z,93.65
2017-01-21T02:45:38.376Z,93.56
2017-01-21T02:46:38.332Z,93.65
2017-01-21T02:47:38.282Z,93.94
2017-01-21T02:48:38.237Z,93.75
2017-01-21T02:49:38.193Z,93.75
2017-01-21T02:50:38.154Z,93.75
2017-01-21T02:51:38.099Z,94.13
2017-01-21T02:52:38.052Z,93.37
2017-01-21T02:53:38.007Z,93.37
2017-01-21T02:54:37.960Z,93.94
2017-01-21T02:55:37.916Z,94.13
2017-01-21T02:56:37.871Z,93.94
2017-01-21T02:57:37.823Z,93.75
2017-01-21T02:58:37.783Z,93.8
2017-01-21T02:59:37.730Z,93.89
2017-01-21T03:00:37.684Z,93.7
2017-01-21T03:01:37.638Z,93.51
2017-01-21T03:02:37.591Z,93.61
2017-01-21T03:03:37.546Z,93.51
2017-01-21T03:04:37.499Z,93.7
2017-01-21T03:05:37.452Z,93.7
2017-01-21T03:06:37.406Z,93.7
2017-01-21T03:07:37.362Z,93.89
2017-01-21T03:08:37.403Z,93.51
2017-01-21T03:09:37.272Z,93.98
2017-01-21T03:10:37.223Z,93.7
2017-01-21T03:11:37.176Z,93.51
2017-01-21T03:12:37.132Z,93.42
2017-01-21T03:13:37.087Z,93.04
2017-01-21T03:14:37.040Z,93.32
2017-01-21T03:15:36.999Z,93.13
2017-01-21T03:16:36.946Z,93.32
2017-01-21T03:17:36.899Z,93.32
2017-01-21T03:18:36.858Z,93.32
2017-01-21T03:19:36.808Z,93.04
2017-01-21T03:20:36.764Z,93.61
2017-01-21T03:21:36.715Z,92.9
2017-01-21T03:22:36.672Z,93.28
2017-01-21T03:23:36.623Z,92.9
2017-01-21T03:24:36.576Z,93.04
2017-01-21T03:25:36.530Z,93.04
2017-01-21T03:26:36.485Z,93.04
2017-01-21T03:27:36.437Z,92.9
2017-01-21T03:28:36.392Z,93.32
2017-01-21T03:29:36.346Z,93.13
2017-01-21T03:30:36.300Z,93.23
2017-01-21T03:31:36.255Z,92.85
2017-01-21T03:32:36.209Z,92.95
2017-01-21T03:33:36.163Z,92.95
2017-01-21T03:34:36.117Z,92.9
2017-01-21T03:35:36.071Z,93.42
2017-01-21T03:36:36.024Z,93.28
2017-01-21T03:37:35.978Z,93.28
2017-01-21T03:38:35.932Z,92.9
2017-01-21T03:39:35.886Z,93.42
2017-01-21T03:40:35.840Z,93.28
2017-01-21T03:41:35.793Z,93.42
2017-01-21T03:42:35.749Z,93.13
2017-01-21T03:43:35.702Z,92.95
2017-01-21T03:44:35.656Z,92.57
2017-01-21T03:45:35.609Z,92.85
2017-01-21T03:46:35.563Z,92.85
2017-01-21T03:47:35.517Z,92.76
2017-01-21T03:48:35.471Z,92.95
2017-01-21T03:49:35.423Z,92.95
2017-01-21T03:50:35.379Z,92.95
2017-01-21T03:51:35.334Z,92.85
2017-01-21T03:52:35.288Z,93.23
2017-01-21T03:53:35.241Z,93.04
2017-01-21T03:54:35.193Z,92.95
2017-01-21T03:55:35.149Z,92.95
2017-01-21T03:56:35.117Z,92.95
2017-01-21T03:57:35.056Z,92.76
2017-01-21T03:58:35.010Z,92.95
2017-01-21T03:59:34.963Z,92.95
2017-01-21T04:00:34.923Z,93.13
2017-01-21T04:01:34.871Z,92.95
2017-01-21T04:02:34.826Z,93.13
2017-01-21T04:03:34.780Z,92.95
2017-01-21T04:04:34.733Z,93.23
2017-01-21T04:05:34.687Z,92.85
2017-01-21T04:06:34.642Z,92.95
2017-01-21T04:07:34.601Z,92.85
2017-01-21T04:08:34.550Z,93.04
2017-01-21T04:09:34.503Z,93.13
2017-01-21T04:10:34.458Z,93.13
2017-01-21T04:11:34.411Z,92.66
2017-01-21T04:12:34.364Z,92.57
2017-01-21T04:13:34.319Z,92.85
2017-01-21T04:14:34.276Z,92.76
2017-01-21T04:15:34.227Z,92.66
2017-01-21T04:16:34.180Z,93.32
2017-01-21T04:17:34.137Z,93.32
2017-01-21T04:18:34.090Z,93.23
2017-01-21T04:19:34.043Z,93.32
2017-01-21T04:20:33.999Z,92.95
2017-01-21T04:21:33.951Z,93.04
2017-01-21T04:22:33.905Z,92.95
2017-01-21T04:23:33.857Z,93.32
2017-01-21T04:24:33.812Z,92.76
2017-01-21T04:25:33.765Z,93.13
2017-01-21T04:26:33.719Z,93.32
2017-01-21T04:27:33.675Z,92.95
2017-01-21T04:28:33.631Z,92.95
2017-01-21T04:29:33.582Z,93.04
2017-01-21T04:30:33.537Z,92.85
2017-01-21T04:31:33.496Z,93.13
2017-01-21T04:32:33.444Z,92.95
2017-01-21T04:33:33.398Z,93.13
2017-01-21T04:34:33.352Z,93.13
2017-01-21T04:35:33.307Z,93.23
2017-01-21T04:36:33.258Z,92.85
2017-01-21T04:37:33.214Z,93.13
2017-01-21T04:38:33.168Z,93.32
2017-01-21T04:39:33.123Z,93.32
2017-01-21T04:40:33.081Z,93.32
2017-01-21T04:41:33.030Z,93.04
2017-01-21T04:42:32.984Z,93.51
2017-01-21T04:43:32.938Z,93.8
2017-01-21T04:44:32.891Z,93.8
2017-01-21T04:45:32.846Z,93.51
2017-01-21T04:46:32.801Z,93.51
2017-01-21T04:47:32.754Z,93.7
2017-01-21T04:48:32.707Z,93.51
2017-01-21T04:49:32.661Z,93.42
2017-01-21T04:50:32.616Z,93.51
2017-01-21T04:51:32.570Z,93.42
2017-01-21T04:52:32.525Z,93.51
2017-01-21T04:53:32.477Z,93.61
2017-01-21T04:54:32.432Z,93.51
2017-01-21T04:55:32.384Z,93.7
2017-01-21T04:56:32.339Z,93.51
2017-01-21T04:57:32.294Z,93.7
2017-01-21T04:58:32.246Z,93.89
2017-01-21T04:59:32.201Z,94.08
2017-01-21T05:00:32.155Z,93.98
2017-01-21T05:01:32.111Z,93.8
2017-01-21T05:02:32.061Z,93.7
2017-01-21T05:03:32.018Z,93.7
2017-01-21T05:04:31.970Z,93.51
2017-01-21T05:05:31.927Z,93.51
2017-01-21T05:06:31.878Z,93.61
2017-01-21T05:07:31.834Z,93.8
2017-01-21T05:08:31.788Z,93.89
2017-01-21T05:09:31.741Z,93.56
2017-01-21T05:10:31.697Z,93.7
2017-01-21T05:11:31.648Z,93.56
2017-01-21T05:12:31.603Z,93.65
2017-01-21T05:13:31.559Z,93.42
2017-01-21T05:14:31.511Z,94.03
2017-01-21T05:15:31.465Z,93.84
2017-01-21T05:16:31.418Z,93.94
2017-01-21T05:17:31.372Z,94.13
2017-01-21T05:18:31.326Z,94.22
2017-01-21T05:19:31.280Z,93.94
2017-01-21T05:20:31.232Z,94.13
2017-01-21T05:21:31.187Z,94.41
2017-01-21T05:22:31.142Z,94.41
2017-01-21T05:23:31.097Z,94.41
2017-01-21T05:24:31.047Z,94.31
2017-01-21T05:25:31.002Z,94.41
2017-01-21T05:26:30.955Z,94.41
2017-01-21T05:27:30.909Z,94.31
2017-01-21T05:28:30.863Z,94.13
2017-01-21T05:29:30.816Z,94.69
2017-01-21T05:30:30.770Z,94.88
2017-01-21T05:31:30.724Z,94.83
2017-01-21T05:32:30.677Z,94.5
2017-01-21T05:33:30.632Z,94.74
2017-01-21T05:34:30.586Z,94.6
2017-01-21T05:35:30.538Z,94.74
2017-01-21T05:36:30.497Z,94.88
2017-01-21T05:37:30.447Z,94.88
2017-01-21T05:38:30.401Z,94.74
2017-01-21T05:39:30.354Z,94.65
2017-01-21T05:40:30.308Z,94.83
2017-01-21T05:41:30.262Z,94.93
2017-01-21T05:42:30.215Z,94.17
2017-01-21T05:43:30.169Z,94.93
2017-01-21T05:44:30.123Z,94.83
2017-01-21T05:45:30.077Z,94.69
2017-01-21T05:46:30.030Z,94.83
2017-01-21T05:47:29.986Z,94.36
2017-01-21T05:48:29.940Z,94.55
2017-01-21T05:49:29.891Z,94.69
2017-01-21T05:50:29.847Z,94.93
2017-01-21T05:51:29.799Z,94.55
2017-01-21T05:52:29.755Z,94.83
2017-01-21T05:53:29.706Z,94.83
2017-01-21T05:54:29.661Z,94.93
2017-01-21T05:55:29.615Z,94.55
2017-01-21T05:56:29.569Z,94.55
2017-01-21T05:57:29.522Z,94.83
2017-01-21T05:58:29.477Z,94.74
2017-01-21T05:59:29.430Z,94.36
2017-01-21T06:00:29.385Z,94.65
2017-01-21T06:01:29.337Z,95.5
2017-01-21T06:02:29.292Z,95.4
2017-01-21T06:03:29.246Z,95.31
2017-01-21T06:04:29.200Z,95.31
2017-01-21T06:05:29.153Z,95.31
2017-01-21T06:06:29.108Z,95.31
2017-01-21T06:07:29.062Z,95.02
2017-01-21T06:08:29.015Z,95.21
2017-01-21T06:09:28.967Z,95.12
2017-01-21T06:10:28.922Z,95.12
2017-01-21T06:11:28.876Z,95.12
2017-01-21T06:12:28.829Z,95.12
2017-01-21T06:13:28.783Z,95.31
2017-01-21T06:14:28.737Z,94.93
2017-01-21T06:15:28.694Z,95.31
2017-01-21T06:16:28.645Z,95.02
2017-01-21T06:17:28.600Z,95.02
2017-01-21T06:18:28.553Z,95.12
2017-01-21T06:19:28.507Z,94.93
2017-01-21T06:20:28.460Z,95.4
2017-01-21T06:21:28.413Z,95.21
2017-01-21T06:22:28.366Z,94.93
2017-01-21T06:23:28.321Z,95.02
2017-01-21T06:24:28.273Z,95.21
2017-01-21T06:25:28.243Z,95.12
2017-01-21T06:26:28.182Z,95.02
2017-01-21T06:27:28.136Z,95.07
2017-01-21T06:28:28.091Z,95.02
2017-01-21T06:29:28.044Z,95.21
2017-01-21T06:30:27.999Z,95.5
2017-01-21T06:31:27.952Z,95.12
2017-01-21T06:32:27.907Z,95.21
2017-01-21T06:33:27.859Z,95.5
2017-01-21T06:34:27.814Z,95.16
2017-01-21T06:35:27.767Z,95.21
2017-01-21T06:36:27.721Z,95.12
2017-01-21T06:37:27.674Z,95.21
2017-01-21T06:38:27.633Z,95.31
2017-01-21T06:39:27.583Z,95.12
2017-01-21T06:40:27.537Z,95.21
2017-01-21T06:41:27.490Z,95.21
2017-01-21T06:42:27.443Z,95.12
2017-01-21T06:43:27.399Z,94.93
2017-01-21T06:44:27.351Z,95.02
2017-01-21T06:45:27.306Z,95.31
2017-01-21T06:46:27.260Z,95.02
2017-01-21T06:47:27.214Z,95.68
2017-01-21T06:48:27.167Z,95.68
2017-01-21T06:49:27.120Z,95.4
2017-01-21T06:50:27.075Z,95.78
2017-01-21T06:51:27.027Z,95.59
2017-01-21T06:52:26.982Z,95.78
2017-01-21T06:53:26.936Z,95.78
2017-01-21T06:54:26.890Z,96.15
2017-01-21T06:55:26.846Z,95.78
2017-01-21T06:56:26.798Z,95.5
2017-01-21T06:57:26.752Z,95.68
2017-01-21T06:58:26.706Z,95.68
2017-01-21T06:59:26.661Z,95.59
2017-01-21T07:00:26.613Z,95.78
2017-01-21T07:01:26.568Z,96.15
2017-01-21T07:02:26.521Z,96.15
2017-01-21T07:03:26.478Z,95.68
2017-01-21T07:04:26.429Z,95.87
2017-01-21T07:05:26.382Z,96.15
2017-01-21T07:06:26.336Z,95.97
2017-01-21T07:07:26.290Z,96.15
2017-01-21T07:08:26.245Z,96.25
2017-01-21T07:09:26.198Z,95.97
2017-01-21T07:10:26.152Z,96.72
2017-01-21T07:11:26.105Z,96.53
2017-01-21T07:12:26.060Z,96.15
2017-01-21T07:13:26.015Z,96.25
2017-01-21T07:14:25.976Z,96.72
2017-01-21T07:15:25.922Z,96.44
2017-01-21T07:16:25.875Z,96.62
2017-01-21T07:17:25.829Z,96.62
2017-01-21T07:18:25.783Z,96.62
2017-01-21T07:19:25.737Z,96.34
2017-01-21T07:20:25.692Z,96.44
2017-01-21T07:21:25.644Z,97
2017-01-21T07:22:25.599Z,96.72
2017-01-21T07:23:25.552Z,96.91
2017-01-21T07:24:25.505Z,97.09
2017-01-21T07:25:25.459Z,97.09
2017-01-21T07:26:25.413Z,97
2017-01-21T07:27:25.368Z,97.09
2017-01-21T07:28:25.321Z,97.09
2017-01-21T07:29:25.275Z,97.09
2017-01-21T07:30:25.230Z,97.09
2017-01-21T07:31:25.184Z,96.81
2017-01-21T07:32:25.138Z,96.91
2017-01-21T07:33:25.090Z,97
2017-01-21T07:34:25.043Z,97
2017-01-21T07:35:25.010Z,96.81
2017-01-21T07:36:24.953Z,97
2017-01-21T07:37:24.907Z,96.72
2017-01-21T07:38:24.860Z,97
2017-01-21T07:39:24.813Z,97
2017-01-21T07:40:24.767Z,97.09
2017-01-21T07:41:24.721Z,97.09
2017-01-21T07:42:24.676Z,97
2017-01-21T07:43:24.628Z,97.09
2017-01-21T07:44:24.582Z,97.19
2017-01-21T07:45:24.541Z,97
2017-01-21T07:46:24.489Z,96.81
2017-01-21T07:47:24.444Z,97.09
2017-01-21T07:48:24.398Z,96.72
2017-01-21T07:49:24.352Z,96.72
2017-01-21T07:50:24.305Z,97
2017-01-21T07:51:24.261Z,97.09
2017-01-21T07:52:24.215Z,97.19
2017-01-21T07:53:24.168Z,97
2017-01-21T07:54:24.123Z,96.81
2017-01-21T07:55:24.075Z,97.09
2017-01-21T07:56:24.030Z,96.91
2017-01-21T07:57:23.984Z,97.09
2017-01-21T07:58:23.939Z,97.09
2017-01-21T07:59:23.891Z,97.19
2017-01-21T08:00:23.846Z,97.09
2017-01-21T08:01:23.800Z,96.62
2017-01-21T08:02:23.753Z,96.81
2017-01-21T08:03:23.706Z,97.28
2017-01-21T08:04:23.662Z,97.19
2017-01-21T08:05:23.640Z,97.09
2017-01-21T08:06:23.568Z,96.81
2017-01-21T08:07:23.523Z,97.19
2017-01-21T08:08:23.475Z,96.91
2017-01-21T08:09:23.430Z,97.19
2017-01-21T08:10:23.384Z,96.62
2017-01-21T08:11:23.338Z,96.81
2017-01-21T08:12:23.295Z,97.09
2017-01-21T08:13:23.245Z,97.09
2017-01-21T08:14:23.199Z,97.09
2017-01-21T08:15:23.160Z,96.91
2017-01-21T08:16:23.107Z,97
2017-01-21T08:17:23.068Z,97.09
2017-01-21T08:18:23.017Z,97.19
2017-01-21T08:19:22.973Z,97.09
2017-01-21T08:20:22.923Z,97.09
2017-01-21T08:21:23.419Z,97.09
2017-01-21T08:22:23.370Z,97.09
2017-01-21T08:23:23.326Z,97.09
2017-01-21T08:24:23.277Z,97.66
2017-01-21T08:25:23.233Z,97.56
2017-01-21T08:26:23.190Z,97.75
2017-01-21T08:27:23.141Z,97.75
2017-01-21T08:28:23.097Z,97.38
2017-01-21T08:29:23.049Z,97.75
2017-01-21T08:30:22.616Z,97.66
2017-01-21T08:31:22.955Z,97.56
2017-01-21T08:32:22.532Z,97.56
2017-01-21T08:33:22.864Z,97.56
2017-01-21T08:34:22.818Z,97.56
2017-01-21T08:35:22.772Z,97.28
2017-01-21T08:36:22.752Z,97.28
2017-01-21T08:37:22.296Z,97.28
2017-01-21T08:38:22.633Z,97.66
2017-01-21T08:39:22.587Z,97.38
2017-01-21T08:40:22.542Z,97.75
2017-01-21T08:41:22.496Z,97.66
2017-01-21T08:42:22.449Z,97.38
2017-01-21T08:43:22.402Z,97.38
2017-01-21T08:44:22.357Z,97.09
2017-01-21T08:45:22.311Z,97.09
2017-01-21T08:46:22.265Z,97.28
2017-01-21T08:47:22.221Z,96.81
2017-01-21T08:48:22.172Z,96.81
2017-01-21T08:49:22.126Z,97
2017-01-21T08:50:22.083Z,97.38
2017-01-21T08:51:22.035Z,97.09
2017-01-21T08:52:21.987Z,96.81
2017-01-21T08:53:21.953Z,96.53
2017-01-21T08:54:21.898Z,96.62
2017-01-21T08:55:21.471Z,96.34
2017-01-21T08:56:21.806Z,96.34
2017-01-21T08:57:21.770Z,96.81
2017-01-21T08:58:21.723Z,96.44
2017-01-21T08:59:21.672Z,96.25
2017-01-21T09:00:21.626Z,96.25
2017-01-21T09:01:21.584Z,96.44
2017-01-21T09:02:21.532Z,96.72
2017-01-21T09:03:21.103Z,96.72
2017-01-21T09:04:21.442Z,96.62
2017-01-21T09:05:21.396Z,96.72
2017-01-21T09:06:20.967Z,96.15
2017-01-21T09:07:20.918Z,96.53
2017-01-21T09:08:21.283Z,96.06
2017-01-21T09:09:20.828Z,96.15
2017-01-21T09:10:21.167Z,96.34
2017-01-21T09:11:21.120Z,96.72
2017-01-21T09:12:21.080Z,96.44
2017-01-21T09:13:21.030Z,96.06
2017-01-21T09:14:20.601Z,96.39
2017-01-21T09:15:20.941Z,96.77
2017-01-21T09:16:20.911Z,96.67
2017-01-21T09:17:20.857Z,96.53
2017-01-21T09:18:20.419Z,96.72
2017-01-21T09:19:20.756Z,96.58
2017-01-21T09:20:20.713Z,96.53
2017-01-21T09:21:20.281Z,96.77
2017-01-21T09:22:20.624Z,96.2
2017-01-21T09:23:20.576Z,95.83
2017-01-21T09:24:20.148Z,96.11
2017-01-21T09:25:20.482Z,95.73
2017-01-21T09:26:20.438Z,95.92
2017-01-21T09:27:20.394Z,95.64
2017-01-21T09:28:20.018Z,95.92
2017-01-21T09:29:20.303Z,96.01
2017-01-21T09:30:20.259Z,96.2
2017-01-21T09:31:20.215Z,96.3
2017-01-21T09:32:19.782Z,96.06
2017-01-21T09:33:20.122Z,96.2
2017-01-21T09:34:19.694Z,96.58
2017-01-21T09:35:19.645Z,96.2
2017-01-21T09:36:19.986Z,96.11
2017-01-21T09:37:19.963Z,96.11
2017-01-21T09:38:19.892Z,96.58
2017-01-21T09:39:19.848Z,96.58
2017-01-21T09:40:19.801Z,96.11
2017-01-21T09:41:19.756Z,96.2
2017-01-21T09:42:19.324Z,96.3
2017-01-21T09:43:19.665Z,96.3
2017-01-21T09:44:19.621Z,96.01
2017-01-21T09:45:19.580Z,95.83
2017-01-21T09:46:19.530Z,95.83
2017-01-21T09:47:19.480Z,95.73
2017-01-21T09:48:19.436Z,95.07
2017-01-21T09:49:19.395Z,95.17
2017-01-21T09:50:19.354Z,95.36
2017-01-21T09:51:18.942Z,94.98
2017-01-21T09:52:18.869Z,94.79
2017-01-21T09:53:19.212Z,94.41
2017-01-21T09:54:19.166Z,94.22
2017-01-21T09:55:18.736Z,94.41
2017-01-21T09:56:19.073Z,94.98
2017-01-21T09:57:19.031Z,94.79
2017-01-21T09:58:18.986Z,94.6
2017-01-21T09:59:18.947Z,94.69
2017-01-21T10:00:18.509Z,94.32
2017-01-21T10:01:18.853Z,94.22
2017-01-21T10:02:18.805Z,94.6
2017-01-21T10:03:18.755Z,94.79
2017-01-21T10:04:18.710Z,95.07
2017-01-21T10:05:18.677Z,95.17
2017-01-21T10:06:18.630Z,94.98
2017-01-21T10:07:18.580Z,94.79
2017-01-21T10:08:18.146Z,95.17
2017-01-21T10:09:18.485Z,94.98
2017-01-21T10:10:18.443Z,94.79
2017-01-21T10:11:18.032Z,94.6
2017-01-21T10:12:18.364Z,94.41
2017-01-21T10:13:18.302Z,94.13
2017-01-21T10:14:17.872Z,94.03
2017-01-21T10:15:18.219Z,94.03
2017-01-21T10:16:18.170Z,94.22
2017-01-21T10:17:18.133Z,94.32
2017-01-21T10:18:18.080Z,94.22
2017-01-21T10:19:18.036Z,94.22
2017-01-21T10:20:17.990Z,94.22
2017-01-21T10:21:17.941Z,94.03
2017-01-21T10:22:17.901Z,94.22
2017-01-21T10:23:17.854Z,93.84
2017-01-21T10:24:17.425Z,94.13
2017-01-21T10:25:17.379Z,94.13
2017-01-21T10:26:17.336Z,94.41
2017-01-21T10:27:17.676Z,94.22
2017-01-21T10:28:17.630Z,94.03
2017-01-21T10:29:17.588Z,94.13
2017-01-21T10:30:17.540Z,94.22
2017-01-21T10:31:17.496Z,94.22
2017-01-21T10:32:17.073Z,93.84
2017-01-21T10:33:17.407Z,94.03
2017-01-21T10:34:17.362Z,93.65
2017-01-21T10:35:17.327Z,93.75
2017-01-21T10:36:16.887Z,93.84
2017-01-21T10:37:16.842Z,94.46
2017-01-21T10:38:17.180Z,94.03
2017-01-21T10:39:17.137Z,93.51
2017-01-21T10:40:17.093Z,93.04
2017-01-21T10:41:16.665Z,92.85
2017-01-21T10:42:17.003Z,92.85
2017-01-21T10:43:16.959Z,92.47
2017-01-21T10:44:16.913Z,91.91
2017-01-21T10:45:16.483Z,91.82
2017-01-21T10:46:16.829Z,92.1
2017-01-21T10:47:16.404Z,92.29
2017-01-21T10:48:16.734Z,91.63
2017-01-21T10:49:16.691Z,91.63
2017-01-21T10:50:16.646Z,90.87
2017-01-21T10:51:16.601Z,91.16
2017-01-21T10:52:16.170Z,90.59
2017-01-21T10:53:16.516Z,90.59
2017-01-21T10:54:16.473Z,90.4
2017-01-21T10:55:16.423Z,90.4
2017-01-21T10:56:16.380Z,89.93
2017-01-21T10:57:15.961Z,90.02
2017-01-21T10:58:16.291Z,90.21
2017-01-21T10:59:16.252Z,90.59
2017-01-21T11:00:16.210Z,90.5
2017-01-21T11:01:15.774Z,90.21
2017-01-21T11:02:16.115Z,90.4
2017-01-21T11:03:16.071Z,90.02
2017-01-21T11:04:15.639Z,90.31
2017-01-21T11:05:15.598Z,90.31
2017-01-21T11:06:15.553Z,90.78
2017-01-21T11:07:15.515Z,90.12
2017-01-21T11:08:15.464Z,90.5
2017-01-21T11:09:15.424Z,90.12
2017-01-21T11:10:15.766Z,90.59
2017-01-21T11:11:15.722Z,89.83
2017-01-21T11:12:15.674Z,89.88
2017-01-21T11:13:15.631Z,89.97
2017-01-21T11:14:15.586Z,89.69
2017-01-21T11:15:15.624Z,89.78
2017-01-21T11:16:15.116Z,89.88
2017-01-21T11:17:15.069Z,89.5
2017-01-21T11:18:15.409Z,89.12
2017-01-21T11:19:14.983Z,88.93
2017-01-21T11:20:14.941Z,88.46
2017-01-21T11:21:15.280Z,88.46
2017-01-21T11:22:15.239Z,88.28
2017-01-21T11:23:15.196Z,88.09
2017-01-21T11:24:14.763Z,88.09
2017-01-21T11:25:15.103Z,88.09
2017-01-21T11:26:15.062Z,88.46
2017-01-21T11:27:15.546Z,88.46
2017-01-21T11:28:14.976Z,88.56
2017-01-21T11:29:14.932Z,88.56
2017-01-21T11:30:14.887Z,88.56
2017-01-21T11:31:14.853Z,88.65
2017-01-21T11:32:14.797Z,88.75
2017-01-21T11:33:14.756Z,88.46
2017-01-21T11:34:14.712Z,88.65
2017-01-21T11:35:14.283Z,88.09
2017-01-21T11:36:14.242Z,87.99
2017-01-21T11:37:14.583Z,88.56
2017-01-21T11:38:14.537Z,88.56
2017-01-21T11:39:14.494Z,88.28
2017-01-21T11:40:14.455Z,88.37
2017-01-21T11:41:14.406Z,88.28
2017-01-21T11:42:14.365Z,87.52
2017-01-21T11:43:14.319Z,87.62
2017-01-21T11:44:14.278Z,87.52
2017-01-21T11:45:14.233Z,87.9
2017-01-21T11:46:14.190Z,88.18
2017-01-21T11:47:14.149Z,88.09
2017-01-21T11:48:14.103Z,88.65
2017-01-21T11:49:14.073Z,88.65
2017-01-21T11:50:14.015Z,88.65
2017-01-21T11:51:13.975Z,88.46
2017-01-21T11:52:13.540Z,87.99
2017-01-21T11:53:13.884Z,88.37
2017-01-21T11:54:13.840Z,87.33
2017-01-21T11:55:13.799Z,87.8
2017-01-21T11:56:13.749Z,87.62
2017-01-21T11:57:13.706Z,87.8
2017-01-21T11:58:13.675Z,87.71
2017-01-21T11:59:13.237Z,87.71
2017-01-21T12:00:13.576Z,87.9
2017-01-21T12:01:13.535Z,87.8
2017-01-21T12:02:13.489Z,86.86
2017-01-21T12:03:13.463Z,86.57
2017-01-21T12:04:13.401Z,86.38
2017-01-21T12:05:13.358Z,85.53
2017-01-21T12:06:13.317Z,85.82
2017-01-21T12:07:13.269Z,85.91
2017-01-21T12:08:13.229Z,86.29
2017-01-21T12:09:12.798Z,86.29
2017-01-21T12:10:13.140Z,86.86
2017-01-21T12:11:13.098Z,86.57
2017-01-21T12:12:13.052Z,86.86
2017-01-21T12:13:13.011Z,87.33
2017-01-21T12:14:12.963Z,87.43
2017-01-21T12:15:12.538Z,86.86
2017-01-21T12:16:12.890Z,87.05
2017-01-21T12:17:12.833Z,86.76
2017-01-21T12:18:12.793Z,86.29
2017-01-21T12:19:12.747Z,86.67
2017-01-21T12:20:12.706Z,86.38
2017-01-21T12:21:12.275Z,86.48
2017-01-21T12:22:12.621Z,86.29
2017-01-21T12:23:12.578Z,86.38
2017-01-21T12:24:12.531Z,85.53
2017-01-21T12:25:12.101Z,85.72
2017-01-21T12:26:12.446Z,85.53
2017-01-21T12:27:12.405Z,85.72
2017-01-21T12:28:12.360Z,85.63
2017-01-21T12:29:12.313Z,86.01
2017-01-21T12:30:11.884Z,85.53
2017-01-21T12:31:12.225Z,85.91
2017-01-21T12:32:11.801Z,85.72
2017-01-21T12:33:12.140Z,85.63
